sensor_id;sensor_type;location;lat;lon;timestamp;pressure;altitude;pressure_sealevel;temperature;humidity
69667;BME280;66534;52.370;4.832;2023-03-14T00:00:11;98761.63;;;10.37;100.00
69667;BME280;66534;52.370;4.832;2023-03-14T00:00:44;98772.19;;;10.35;100.00
69667;BME280;66534;52.370;4.832;2023-03-14T00:01:15;98774.47;;;10.29;100.00
69667;BME280;66534;52.370;4.832;2023-03-14T00:01:47;98777.81;;;10.31;100.00
69667;BME280;66534;52.370;4.832;2023-03-14T00:02:18;98768.28;;;10.30;100.00
69667;BME280;66534;52.370;4.832;2023-03-14T00:02:52;98769.34;;;10.27;100.00
69667;BME280;66534;52.370;4.832;2023-03-14T00:03:23;98769.47;;;10.26;100.00
69667;BME280;66534;52.370;4.832;2023-03-14T00:03:54;98751.19;;;10.24;100.00
69667;BME280;66534;52.370;4.832;2023-03-14T00:04:24;98766.34;;;10.20;100.00
69667;BME280;66534;52.370;4.832;2023-03-14T00:04:55;98762.97;;;10.18;100.00
69667;BME280;66534;52.370;4.832;2023-03-14T00:05:26;98769.66;;;10.22;100.00
69667;BME280;66534;52.370;4.832;2023-03-14T00:06:01;98762.63;;;10.23;100.00
69667;BME280;66534;52.370;4.832;2023-03-14T00:06:32;98757.31;;;10.25;100.00
69667;BME280;66534;52.370;4.832;2023-03-14T00:07:04;98758.56;;;10.19;100.00
69667;BME280;66534;52.370;4.832;2023-03-14T00:07:35;98758.69;;;10.17;100.00
69667;BME280;66534;52.370;4.832;2023-03-14T00:08:06;98760.34;;;10.18;100.00
69667;BME280;66534;52.370;4.832;2023-03-14T00:08:37;98761.53;;;10.14;100.00
69667;BME280;66534;52.370;4.832;2023-03-14T00:09:07;98757.97;;;10.15;100.00
69667;BME280;66534;52.370;4.832;2023-03-14T00:09:38;98762.38;;;10.15;100.00
69667;BME280;66534;52.370;4.832;2023-03-14T00:10:09;98765.34;;;10.10;100.00
69667;BME280;66534;52.370;4.832;2023-03-14T00:10:42;98767.97;;;10.10;100.00
69667;BME280;66534;52.370;4.832;2023-03-14T00:11:14;98769.53;;;10.13;100.00
69667;BME280;66534;52.370;4.832;2023-03-14T00:11:46;98772.25;;;10.11;100.00
69667;BME280;66534;52.370;4.832;2023-03-14T00:12:16;98773.41;;;10.07;100.00
69667;BME280;66534;52.370;4.832;2023-03-14T00:12:47;98765.00;;;10.04;100.00
69667;BME280;66534;52.370;4.832;2023-03-14T00:13:17;98774.16;;;10.09;100.00
69667;BME280;66534;52.370;4.832;2023-03-14T00:13:51;98774.75;;;10.13;100.00
69667;BME280;66534;52.370;4.832;2023-03-14T00:14:22;98774.84;;;10.11;100.00
69667;BME280;66534;52.370;4.832;2023-03-14T00:14:53;98760.09;;;10.10;100.00
69667;BME280;66534;52.370;4.832;2023-03-14T00:15:23;98780.00;;;10.13;100.00
69667;BME280;66534;52.370;4.832;2023-03-14T00:15:54;98774.84;;;10.11;100.00
69667;BME280;66534;52.370;4.832;2023-03-14T00:16:24;98774.03;;;10.11;100.00
69667;BME280;66534;52.370;4.832;2023-03-14T00:16:55;98764.63;;;10.08;100.00
69667;BME280;66534;52.370;4.832;2023-03-14T00:17:26;98765.47;;;10.09;100.00
69667;BME280;66534;52.370;4.832;2023-03-14T00:17:57;98776.66;;;10.11;100.00
69667;BME280;66534;52.370;4.832;2023-03-14T00:18:27;98762.63;;;10.12;100.00
69667;BME280;66534;52.370;4.832;2023-03-14T00:18:58;98774.28;;;10.08;100.00
69667;BME280;66534;52.370;4.832;2023-03-14T00:19:29;98763.91;;;10.06;100.00
69667;BME280;66534;52.370;4.832;2023-03-14T00:20:00;98769.13;;;10.06;100.00
69667;BME280;66534;52.370;4.832;2023-03-14T00:20:38;98763.81;;;10.08;100.00
69667;BME280;66534;52.370;4.832;2023-03-14T00:21:08;98768.91;;;10.09;100.00
69667;BME280;66534;52.370;4.832;2023-03-14T00:21:40;98765.69;;;10.06;100.00
69667;BME280;66534;52.370;4.832;2023-03-14T00:22:10;98770.22;;;10.04;100.00
69667;BME280;66534;52.370;4.832;2023-03-14T00:22:41;98759.00;;;10.02;100.00
69667;BME280;66534;52.370;4.832;2023-03-14T00:23:12;98779.13;;;10.01;100.00
69667;BME280;66534;52.370;4.832;2023-03-14T00:23:42;98767.94;;;9.99;100.00
69667;BME280;66534;52.370;4.832;2023-03-14T00:24:13;98770.44;;;10.01;100.00
69667;BME280;66534;52.370;4.832;2023-03-14T00:24:44;98769.38;;;10.03;100.00
69667;BME280;66534;52.370;4.832;2023-03-14T00:25:14;98775.69;;;10.01;100.00
69667;BME280;66534;52.370;4.832;2023-03-14T00:25:44;98775.81;;;9.99;100.00
69667;BME280;66534;52.370;4.832;2023-03-14T00:26:16;98765.91;;;10.03;100.00
69667;BME280;66534;52.370;4.832;2023-03-14T00:26:49;98765.00;;;10.04;100.00
69667;BME280;66534;52.370;4.832;2023-03-14T00:27:19;98760.56;;;10.04;100.00
69667;BME280;66534;52.370;4.832;2023-03-14T00:27:50;98759.84;;;10.02;100.00
69667;BME280;66534;52.370;4.832;2023-03-14T00:28:21;98760.69;;;10.03;100.00
69667;BME280;66534;52.370;4.832;2023-03-14T00:28:52;98763.06;;;10.06;100.00
69667;BME280;66534;52.370;4.832;2023-03-14T00:29:23;98755.34;;;10.04;100.00
69667;BME280;66534;52.370;4.832;2023-03-14T00:29:54;98760.69;;;10.03;100.00
69667;BME280;66534;52.370;4.832;2023-03-14T00:30:24;98766.75;;;10.03;100.00
69667;BME280;66534;52.370;4.832;2023-03-14T00:30:55;98763.69;;;10.09;100.00
69667;BME280;66534;52.370;4.832;2023-03-14T00:31:25;98755.00;;;10.09;100.00
69667;BME280;66534;52.370;4.832;2023-03-14T00:31:56;98757.72;;;10.07;100.00
69667;BME280;66534;52.370;4.832;2023-03-14T00:32:26;98758.66;;;10.06;100.00
69667;BME280;66534;52.370;4.832;2023-03-14T00:32:56;98759.63;;;10.05;100.00
69667;BME280;66534;52.370;4.832;2023-03-14T00:33:27;98770.44;;;10.01;100.00
69667;BME280;66534;52.370;4.832;2023-03-14T00:33:57;98753.78;;;10.02;100.00
69667;BME280;66534;52.370;4.832;2023-03-14T00:34:28;98760.56;;;10.04;100.00
69667;BME280;66534;52.370;4.832;2023-03-14T00:35:00;98751.88;;;10.04;100.00
69667;BME280;66534;52.370;4.832;2023-03-14T00:35:30;98753.44;;;10.06;100.00
69667;BME280;66534;52.370;4.832;2023-03-14T00:36:02;98751.97;;;10.02;100.00
69667;BME280;66534;52.370;4.832;2023-03-14T00:36:38;98758.66;;;10.06;100.00
69667;BME280;66534;52.370;4.832;2023-03-14T00:37:09;98754.84;;;10.10;100.00
69667;BME280;66534;52.370;4.832;2023-03-14T00:37:39;98749.53;;;10.12;100.00
69667;BME280;66534;52.370;4.832;2023-03-14T00:38:10;98747.00;;;10.10;100.00
69667;BME280;66534;52.370;4.832;2023-03-14T00:38:40;98748.09;;;10.08;100.00
69667;BME280;66534;52.370;4.832;2023-03-14T00:39:12;98745.34;;;10.09;100.00
69667;BME280;66534;52.370;4.832;2023-03-14T00:39:42;98754.25;;;10.07;100.00
69667;BME280;66534;52.370;4.832;2023-03-14T00:40:13;98746.66;;;10.04;100.00
69667;BME280;66534;52.370;4.832;2023-03-14T00:40:43;98751.75;;;10.05;100.00
69667;BME280;66534;52.370;4.832;2023-03-14T00:41:14;98748.19;;;10.06;100.00
69667;BME280;66534;52.370;4.832;2023-03-14T00:41:47;98748.31;;;10.05;100.00
69667;BME280;66534;52.370;4.832;2023-03-14T00:42:17;98754.16;;;10.08;100.00
69667;BME280;66534;52.370;4.832;2023-03-14T00:42:48;98744.38;;;10.10;100.00
69667;BME280;66534;52.370;4.832;2023-03-14T00:43:18;98756.78;;;10.08;100.00
69667;BME280;66534;52.370;4.832;2023-03-14T00:43:51;98750.59;;;10.09;100.00
69667;BME280;66534;52.370;4.832;2023-03-14T00:44:22;98742.72;;;10.09;100.00
69667;BME280;66534;52.370;4.832;2023-03-14T00:44:52;98748.09;;;10.08;100.00
69667;BME280;66534;52.370;4.832;2023-03-14T00:45:22;98760.31;;;10.07;100.00
69667;BME280;66534;52.370;4.832;2023-03-14T00:45:53;98758.44;;;10.09;100.00
69667;BME280;66534;52.370;4.832;2023-03-14T00:46:23;98754.16;;;10.08;100.00
69667;BME280;66534;52.370;4.832;2023-03-14T00:46:54;98741.88;;;10.09;100.00
69667;BME280;66534;52.370;4.832;2023-03-14T00:47:24;98760.31;;;10.07;100.00
69667;BME280;66534;52.370;4.832;2023-03-14T00:47:55;98749.84;;;10.07;100.00
69667;BME280;66534;52.370;4.832;2023-03-14T00:48:25;98747.34;;;10.06;100.00
69667;BME280;66534;52.370;4.832;2023-03-14T00:48:56;98749.84;;;10.07;100.00
69667;BME280;66534;52.370;4.832;2023-03-14T00:49:26;98749.84;;;10.07;100.00
69667;BME280;66534;52.370;4.832;2023-03-14T00:49:57;98741.75;;;10.10;100.00
69667;BME280;66534;52.370;4.832;2023-03-14T00:50:27;98756.78;;;10.08;100.00
69667;BME280;66534;52.370;4.832;2023-03-14T00:50:57;98746.41;;;10.07;100.00
69667;BME280;66534;52.370;4.832;2023-03-14T00:51:28;98749.00;;;10.07;100.00
69667;BME280;66534;52.370;4.832;2023-03-14T00:51:58;98746.41;;;10.07;100.00
69667;BME280;66534;52.370;4.832;2023-03-14T00:52:28;98751.75;;;10.05;100.00
69667;BME280;66534;52.370;4.832;2023-03-14T00:52:59;98739.28;;;10.09;100.00
69667;BME280;66534;52.370;4.832;2023-03-14T00:53:29;98743.06;;;10.05;100.00
69667;BME280;66534;52.370;4.832;2023-03-14T00:54:00;98754.50;;;10.04;100.00
69667;BME280;66534;52.370;4.832;2023-03-14T00:54:30;98757.84;;;10.06;100.00
69667;BME280;66534;52.370;4.832;2023-03-14T00:55:01;98752.72;;;10.04;100.00
69667;BME280;66534;52.370;4.832;2023-03-14T00:55:35;98749.16;;;10.05;100.00
69667;BME280;66534;52.370;4.832;2023-03-14T00:56:07;98753.56;;;10.05;100.00
69667;BME280;66534;52.370;4.832;2023-03-14T00:56:39;98753.66;;;10.03;100.00
69667;BME280;66534;52.370;4.832;2023-03-14T00:57:10;98754.50;;;10.04;100.00
69667;BME280;66534;52.370;4.832;2023-03-14T00:57:40;98752.81;;;10.03;100.00
69667;BME280;66534;52.370;4.832;2023-03-14T00:58:11;98755.44;;;10.03;100.00
69667;BME280;66534;52.370;4.832;2023-03-14T00:58:43;98744.97;;;10.03;100.00
69667;BME280;66534;52.370;4.832;2023-03-14T00:59:13;98753.66;;;10.03;100.00
69667;BME280;66534;52.370;4.832;2023-03-14T00:59:45;98751.88;;;10.04;100.00
69667;BME280;66534;52.370;4.832;2023-03-14T01:00:16;98752.94;;;10.01;100.00
69667;BME280;66534;52.370;4.832;2023-03-14T01:00:46;98755.56;;;10.01;100.00
69667;BME280;66534;52.370;4.832;2023-03-14T01:01:17;98751.97;;;10.02;100.00
69667;BME280;66534;52.370;4.832;2023-03-14T01:01:48;98769.97;;;9.95;100.00
69667;BME280;66534;52.370;4.832;2023-03-14T01:02:19;98763.78;;;9.96;100.00
69667;BME280;66534;52.370;4.832;2023-03-14T01:02:49;98756.75;;;9.97;100.00
69667;BME280;66534;52.370;4.832;2023-03-14T01:03:20;98766.38;;;9.96;100.00
69667;BME280;66534;52.370;4.832;2023-03-14T01:03:51;98752.13;;;10.01;100.00
69667;BME280;66534;52.370;4.832;2023-03-14T01:04:22;98750.91;;;9.93;100.00
69667;BME280;66534;52.370;4.832;2023-03-14T01:04:52;98748.41;;;9.92;100.00
69667;BME280;66534;52.370;4.832;2023-03-14T01:05:23;98752.91;;;9.90;100.00
69667;BME280;66534;52.370;4.832;2023-03-14T01:05:54;98773.97;;;9.88;100.00
69667;BME280;66534;52.370;4.832;2023-03-14T01:06:25;98766.13;;;9.88;100.00
69667;BME280;66534;52.370;4.832;2023-03-14T01:06:57;98764.69;;;9.84;100.00
69667;BME280;66534;52.370;4.832;2023-03-14T01:07:28;98759.94;;;9.89;100.00
69667;BME280;66534;52.370;4.832;2023-03-14T01:07:58;98770.41;;;9.89;100.00
69667;BME280;66534;52.370;4.832;2023-03-14T01:08:29;98770.31;;;9.91;100.00
69667;BME280;66534;52.370;4.832;2023-03-14T01:08:59;98766.25;;;9.87;100.00
69667;BME280;66534;52.370;4.832;2023-03-14T01:09:30;98772.31;;;9.87;100.00
69667;BME280;66534;52.370;4.832;2023-03-14T01:10:00;98760.88;;;9.88;100.00
69667;BME280;66534;52.370;4.832;2023-03-14T01:10:31;98754.81;;;9.88;100.00
69667;BME280;66534;52.370;4.832;2023-03-14T01:11:12;98772.41;;;9.86;100.00
69667;BME280;66534;52.370;4.832;2023-03-14T01:11:50;98760.88;;;9.88;100.00
69667;BME280;66534;52.370;4.832;2023-03-14T01:12:24;98765.38;;;9.86;100.00
69667;BME280;66534;52.370;4.832;2023-03-14T01:13:02;98771.72;;;9.84;100.00
69667;BME280;66534;52.370;4.832;2023-03-14T01:13:39;98769.09;;;9.84;100.00
69667;BME280;66534;52.370;4.832;2023-03-14T01:14:10;98778.72;;;9.83;100.00
69667;BME280;66534;52.370;4.832;2023-03-14T01:14:40;98771.94;;;9.81;100.00
69667;BME280;66534;52.370;4.832;2023-03-14T01:15:17;98767.31;;;9.84;100.00
69667;BME280;66534;52.370;4.832;2023-03-14T01:15:48;98768.25;;;9.83;100.00
69667;BME280;66534;52.370;4.832;2023-03-14T01:16:18;98771.72;;;9.84;100.00
69667;BME280;66534;52.370;4.832;2023-03-14T01:16:51;98769.19;;;9.82;100.00
69667;BME280;66534;52.370;4.832;2023-03-14T01:17:21;98776.13;;;9.83;100.00
69667;BME280;66534;52.370;4.832;2023-03-14T01:17:52;98776.13;;;9.83;100.00
69667;BME280;66534;52.370;4.832;2023-03-14T01:18:22;98783.97;;;9.83;100.00
69667;BME280;66534;52.370;4.832;2023-03-14T01:18:53;98771.59;;;9.85;100.00
69667;BME280;66534;52.370;4.832;2023-03-14T01:19:24;98772.53;;;9.84;100.00
69667;BME280;66534;52.370;4.832;2023-03-14T01:19:54;98771.59;;;9.85;100.00
69667;BME280;66534;52.370;4.832;2023-03-14T01:20:25;98772.06;;;9.90;100.00
69667;BME280;66534;52.370;4.832;2023-03-14T01:20:59;98765.91;;;9.91;100.00
69667;BME280;66534;52.370;4.832;2023-03-14T01:21:31;98767.19;;;9.86;100.00
69667;BME280;66534;52.370;4.832;2023-03-14T01:22:02;98776.47;;;9.79;100.00
69667;BME280;66534;52.370;4.832;2023-03-14T01:22:33;98774.75;;;9.78;100.00
69667;BME280;66534;52.370;4.832;2023-03-14T01:23:03;98772.66;;;9.83;100.00
69667;BME280;66534;52.370;4.832;2023-03-14T01:23:34;98773.84;;;9.79;100.00
69667;BME280;66534;52.370;4.832;2023-03-14T01:24:05;98772.16;;;9.78;100.00
69667;BME280;66534;52.370;4.832;2023-03-14T01:24:36;98760.97;;;9.76;100.00
69667;BME280;66534;52.370;4.832;2023-03-14T01:25:09;98754.06;;;9.75;100.00
69667;BME280;66534;52.370;4.832;2023-03-14T01:25:41;98759.19;;;9.76;100.00
69667;BME280;66534;52.370;4.832;2023-03-14T01:26:12;98769.16;;;9.71;100.00
69667;BME280;66534;52.370;4.832;2023-03-14T01:26:44;98760.47;;;9.70;100.00
69667;BME280;66534;52.370;4.832;2023-03-14T01:27:14;98759.66;;;9.70;100.00
69667;BME280;66534;52.370;4.832;2023-03-14T01:27:45;98762.38;;;9.68;100.00
69667;BME280;66534;52.370;4.832;2023-03-14T01:28:15;98751.66;;;9.71;100.00
69667;BME280;66534;52.370;4.832;2023-03-14T01:28:46;98758.69;;;9.71;100.00
69667;BME280;66534;52.370;4.832;2023-03-14T01:29:17;98755.25;;;9.70;100.00
69667;BME280;66534;52.370;4.832;2023-03-14T01:29:48;98758.47;;;9.74;100.00
69667;BME280;66534;52.370;4.832;2023-03-14T01:30:18;98769.88;;;9.73;100.00
69667;BME280;66534;52.370;4.832;2023-03-14T01:30:48;98759.75;;;9.68;100.00
69667;BME280;66534;52.370;4.832;2023-03-14T01:31:19;98754.50;;;9.68;100.00
69667;BME280;66534;52.370;4.832;2023-03-14T01:31:49;98751.78;;;9.70;100.00
69667;BME280;66534;52.370;4.832;2023-03-14T01:32:19;98760.13;;;9.75;100.00
69667;BME280;66534;52.370;4.832;2023-03-14T01:32:50;98766.09;;;9.77;100.00
69667;BME280;66534;52.370;4.832;2023-03-14T01:33:20;98762.38;;;9.68;100.00
69667;BME280;66534;52.370;4.832;2023-03-14T01:33:51;98757.34;;;9.65;100.00
69667;BME280;66534;52.370;4.832;2023-03-14T01:34:22;98767.59;;;9.68;100.00
69667;BME280;66534;52.370;4.832;2023-03-14T01:34:52;98767.25;;;9.73;100.00
69667;BME280;66534;52.370;4.832;2023-03-14T01:35:22;98766.88;;;9.66;100.00
69667;BME280;66534;52.370;4.832;2023-03-14T01:35:53;98767.94;;;9.64;100.00
69667;BME280;66534;52.370;4.832;2023-03-14T01:36:23;98761.53;;;9.68;100.00
69667;BME280;66534;52.370;4.832;2023-03-14T01:36:54;98760.56;;;9.69;100.00
69667;BME280;66534;52.370;4.832;2023-03-14T01:37:24;98767.72;;;9.67;100.00
69667;BME280;66534;52.370;4.832;2023-03-14T01:37:55;98769.59;;;9.65;100.00
69667;BME280;66534;52.370;4.832;2023-03-14T01:38:25;98759.13;;;9.65;100.00
69667;BME280;66534;52.370;4.832;2023-03-14T01:38:55;98770.34;;;9.67;100.00
69667;BME280;66534;52.370;4.832;2023-03-14T01:39:26;98776.06;;;9.72;100.00
69667;BME280;66534;52.370;4.832;2023-03-14T01:39:58;98771.56;;;9.74;100.00
69667;BME280;66534;52.370;4.832;2023-03-14T01:40:29;98768.69;;;9.77;100.00
69667;BME280;66534;52.370;4.832;2023-03-14T01:40:59;98778.69;;;9.72;100.00
69667;BME280;66534;52.370;4.832;2023-03-14T01:41:30;98777.03;;;9.71;100.00
69667;BME280;66534;52.370;4.832;2023-03-14T01:42:01;98774.41;;;9.71;100.00
69667;BME280;66534;52.370;4.832;2023-03-14T01:42:31;98777.72;;;9.73;100.00
69667;BME280;66534;52.370;4.832;2023-03-14T01:43:11;98779.03;;;9.67;100.00
69667;BME280;66534;52.370;4.832;2023-03-14T01:43:45;98780.69;;;9.68;100.00
69667;BME280;66534;52.370;4.832;2023-03-14T01:44:16;98784.03;;;9.70;100.00
69667;BME280;66534;52.370;4.832;2023-03-14T01:46:40;98784.91;;;9.82;100.00
69667;BME280;66534;52.370;4.832;2023-03-14T01:47:21;98776.22;;;9.82;100.00
69667;BME280;66534;52.370;4.832;2023-03-14T01:47:53;98773.09;;;9.77;100.00
69667;BME280;66534;52.370;4.832;2023-03-14T01:48:32;98770.69;;;9.73;100.00
69667;BME280;66534;52.370;4.832;2023-03-14T01:50:11;98769.03;;;9.72;100.00
69667;BME280;66534;52.370;4.832;2023-03-14T01:50:43;98765.81;;;9.69;100.00
69667;BME280;66534;52.370;4.832;2023-03-14T01:51:18;98777.97;;;9.70;100.00
69667;BME280;66534;52.370;4.832;2023-03-14T01:52:46;98768.94;;;9.74;100.00
69667;BME280;66534;52.370;4.832;2023-03-14T01:53:22;98762.50;;;9.67;100.00
69667;BME280;66534;52.370;4.832;2023-03-14T01:53:54;98765.09;;;9.67;100.00
69667;BME280;66534;52.370;4.832;2023-03-14T01:54:44;98762.50;;;9.67;100.00
69667;BME280;66534;52.370;4.832;2023-03-14T01:55:21;98759.53;;;9.71;100.00
69667;BME280;66534;52.370;4.832;2023-03-14T01:55:55;98746.66;;;9.68;100.00
69667;BME280;66534;52.370;4.832;2023-03-14T01:56:27;98751.06;;;9.68;100.00
69667;BME280;66534;52.370;4.832;2023-03-14T01:57:08;98770.22;;;9.68;100.00
69667;BME280;66534;52.370;4.832;2023-03-14T01:57:44;98740.47;;;9.69;100.00
69667;BME280;66534;52.370;4.832;2023-03-14T01:58:20;98748.09;;;9.72;100.00
69667;BME280;66534;52.370;4.832;2023-03-14T01:58:51;98762.00;;;9.73;100.00
69667;BME280;66534;52.370;4.832;2023-03-14T01:59:22;98753.25;;;9.74;100.00
69667;BME280;66534;52.370;4.832;2023-03-14T01:59:55;98743.81;;;9.71;100.00
69667;BME280;66534;52.370;4.832;2023-03-14T02:00:29;98745.81;;;9.68;100.00
69667;BME280;66534;52.370;4.832;2023-03-14T02:01:01;98752.63;;;9.70;100.00
69667;BME280;66534;52.370;4.832;2023-03-14T02:01:33;98747.25;;;9.72;100.00
69667;BME280;66534;52.370;4.832;2023-03-14T02:02:06;98744.53;;;9.73;100.00
69667;BME280;66534;52.370;4.832;2023-03-14T02:03:02;98750.72;;;9.72;100.00
69667;BME280;66534;52.370;4.832;2023-03-14T02:03:36;98765.81;;;9.69;100.00
69667;BME280;66534;52.370;4.832;2023-03-14T02:04:13;98743.94;;;9.70;100.00
69667;BME280;66534;52.370;4.832;2023-03-14T02:04:46;98759.13;;;9.65;100.00
69667;BME280;66534;52.370;4.832;2023-03-14T02:05:18;98757.13;;;9.68;100.00
69667;BME280;66534;52.370;4.832;2023-03-14T02:05:51;98754.16;;;9.73;100.00
69667;BME280;66534;52.370;4.832;2023-03-14T02:06:29;98735.00;;;9.72;100.00
69667;BME280;66534;52.370;4.832;2023-03-14T02:07:07;98747.38;;;9.70;100.00
69667;BME280;66534;52.370;4.832;2023-03-14T02:07:46;98745.81;;;9.68;100.00
69667;BME280;66534;52.370;4.832;2023-03-14T02:08:20;98757.03;;;9.70;100.00
69667;BME280;66534;52.370;4.832;2023-03-14T02:08:51;98752.63;;;9.70;100.00
69667;BME280;66534;52.370;4.832;2023-03-14T02:09:22;98742.03;;;9.72;100.00
69667;BME280;66534;52.370;4.832;2023-03-14T02:09:53;98738.34;;;9.75;100.00
69667;BME280;66534;52.370;4.832;2023-03-14T02:10:27;98744.53;;;9.73;100.00
69667;BME280;66534;52.370;4.832;2023-03-14T02:11:01;98750.63;;;9.74;100.00
69667;BME280;66534;52.370;4.832;2023-03-14T02:11:32;98749.66;;;9.75;100.00
69667;BME280;66534;52.370;4.832;2023-03-14T02:12:02;98740.97;;;9.75;100.00
69667;BME280;66534;52.370;4.832;2023-03-14T02:12:33;98743.69;;;9.73;100.00
69667;BME280;66534;52.370;4.832;2023-03-14T02:13:06;98744.78;;;9.70;100.00
69667;BME280;66534;52.370;4.832;2023-03-14T02:13:37;98736.91;;;9.70;100.00
69667;BME280;66534;52.370;4.832;2023-03-14T02:14:07;98749.06;;;9.71;100.00
69667;BME280;66534;52.370;4.832;2023-03-14T02:14:44;98744.78;;;9.70;100.00
69667;BME280;66534;52.370;4.832;2023-03-14T02:15:17;98742.03;;;9.72;100.00
69667;BME280;66534;52.370;4.832;2023-03-14T02:15:48;98748.00;;;9.74;100.00
69667;BME280;66534;52.370;4.832;2023-03-14T02:16:19;98746.22;;;9.75;100.00
69667;BME280;66534;52.370;4.832;2023-03-14T02:16:50;98746.91;;;9.77;100.00
69667;BME280;66534;52.370;4.832;2023-03-14T02:17:20;98738.59;;;9.71;100.00
69667;BME280;66534;52.370;4.832;2023-03-14T02:17:53;98737.53;;;9.74;100.00
69667;BME280;66534;52.370;4.832;2023-03-14T02:18:23;98735.63;;;9.76;100.00
69667;BME280;66534;52.370;4.832;2023-03-14T02:18:55;98735.63;;;9.76;100.00
69667;BME280;66534;52.370;4.832;2023-03-14T02:19:38;98744.78;;;9.70;100.00
69667;BME280;66534;52.370;4.832;2023-03-14T02:21:59;98743.06;;;9.69;100.00
69667;BME280;66534;52.370;4.832;2023-03-14T02:22:38;98727.97;;;9.73;100.00
69667;BME280;66534;52.370;4.832;2023-03-14T02:24:24;98739.81;;;9.79;100.00
69667;BME280;66534;52.370;4.832;2023-03-14T02:25:57;98728.81;;;9.73;100.00
69667;BME280;66534;52.370;4.832;2023-03-14T02:26:38;98741.06;;;9.73;100.00
69667;BME280;66534;52.370;4.832;2023-03-14T02:27:15;98736.66;;;9.73;100.00
69667;BME280;66534;52.370;4.832;2023-03-14T02:27:46;98733.97;;;9.75;100.00
69667;BME280;66534;52.370;4.832;2023-03-14T02:28:18;98724.09;;;9.79;100.00
69667;BME280;66534;52.370;4.832;2023-03-14T02:28:49;98730.03;;;9.81;100.00
69667;BME280;66534;52.370;4.832;2023-03-14T02:29:20;98733.38;;;9.83;100.00
69667;BME280;66534;52.370;4.832;2023-03-14T02:29:52;98728.16;;;9.83;100.00
69667;BME280;66534;52.370;4.832;2023-03-14T02:30:27;98736.09;;;9.81;100.00
69667;BME280;66534;52.370;4.832;2023-03-14T02:30:59;98739.81;;;9.79;100.00
69667;BME280;66534;52.370;4.832;2023-03-14T02:31:30;98738.00;;;9.79;100.00
69667;BME280;66534;52.370;4.832;2023-03-14T02:32:00;98730.25;;;9.78;100.00
69667;BME280;66534;52.370;4.832;2023-03-14T02:32:32;98731.69;;;9.82;100.00
69667;BME280;66534;52.370;4.832;2023-03-14T02:33:12;98722.78;;;9.84;100.00
69667;BME280;66534;52.370;4.832;2023-03-14T02:33:45;98727.53;;;9.79;100.00
69667;BME280;66534;52.370;4.832;2023-03-14T02:34:16;98726.81;;;9.77;100.00
69667;BME280;66534;52.370;4.832;2023-03-14T02:34:48;98722.41;;;9.78;100.00
69667;BME280;66534;52.370;4.832;2023-03-14T02:35:22;98725.63;;;9.81;100.00
69667;BME280;66534;52.370;4.832;2023-03-14T02:36:02;98726.34;;;9.83;100.00
69667;BME280;66534;52.370;4.832;2023-03-14T02:36:36;98714.72;;;9.87;100.00
69667;BME280;66534;52.370;4.832;2023-03-14T02:37:06;98711.69;;;9.81;100.00
69667;BME280;66534;52.370;4.832;2023-03-14T02:37:48;98718.50;;;9.83;100.00
69667;BME280;66534;52.370;4.832;2023-03-14T02:38:23;98726.59;;;9.80;100.00
69667;BME280;66534;52.370;4.832;2023-03-14T02:39:07;98721.81;;;9.85;100.00
69667;BME280;66534;52.370;4.832;2023-03-14T02:39:44;98720.38;;;9.81;100.00
69667;BME280;66534;52.370;4.832;2023-03-14T02:40:15;98716.72;;;9.84;100.00
69667;BME280;66534;52.370;4.832;2023-03-14T02:40:46;98728.03;;;9.84;100.00
69667;BME280;66534;52.370;4.832;2023-03-14T02:41:17;98721.22;;;9.82;100.00
69667;BME280;66534;52.370;4.832;2023-03-14T02:41:47;98717.69;;;9.83;100.00
69667;BME280;66534;52.370;4.832;2023-03-14T02:42:19;98711.69;;;9.81;100.00
69667;BME280;66534;52.370;4.832;2023-03-14T02:42:50;98720.38;;;9.81;100.00
69667;BME280;66534;52.370;4.832;2023-03-14T02:43:20;98706.34;;;9.82;100.00
69667;BME280;66534;52.370;4.832;2023-03-14T02:43:51;98714.81;;;9.86;100.00
69667;BME280;66534;52.370;4.832;2023-03-14T02:44:21;98709.69;;;9.84;100.00
69667;BME280;66534;52.370;4.832;2023-03-14T02:44:53;98719.34;;;9.84;100.00
69667;BME280;66534;52.370;4.832;2023-03-14T02:45:37;98714.19;;;9.82;100.00
69667;BME280;66534;52.370;4.832;2023-03-14T02:46:09;98717.41;;;9.86;100.00
69667;BME280;66534;52.370;4.832;2023-03-14T02:46:42;98711.25;;;9.87;100.00
69667;BME280;66534;52.370;4.832;2023-03-14T02:47:13;98711.47;;;9.84;100.00
69667;BME280;66534;52.370;4.832;2023-03-14T02:47:44;98712.19;;;9.86;100.00
69667;BME280;66534;52.370;4.832;2023-03-14T02:49:01;98720.16;;;9.84;100.00
69667;BME280;66534;52.370;4.832;2023-03-14T02:49:33;98697.22;;;9.88;100.00
69667;BME280;66534;52.370;4.832;2023-03-14T02:50:06;98710.53;;;9.85;100.00
69667;BME280;66534;52.370;4.832;2023-03-14T02:50:43;98706.13;;;9.85;100.00
69667;BME280;66534;52.370;4.832;2023-03-14T02:51:16;98710.53;;;9.85;100.00
69667;BME280;66534;52.370;4.832;2023-03-14T02:51:47;98708.72;;;9.85;100.00
69667;BME280;66534;52.370;4.832;2023-03-14T02:52:18;98701.63;;;9.87;100.00
69667;BME280;66534;52.370;4.832;2023-03-14T02:52:48;98705.06;;;9.88;100.00
69667;BME280;66534;52.370;4.832;2023-03-14T02:53:20;98702.94;;;9.93;100.00
69667;BME280;66534;52.370;4.832;2023-03-14T02:53:54;98703.06;;;9.91;100.00
69667;BME280;66534;52.370;4.832;2023-03-14T02:54:24;98706.38;;;9.93;100.00
69667;BME280;66534;52.370;4.832;2023-03-14T02:54:55;98689.13;;;9.91;100.00
69667;BME280;66534;52.370;4.832;2023-03-14T02:55:25;98706.59;;;9.90;100.00
69667;BME280;66534;52.370;4.832;2023-03-14T02:55:56;98698.25;;;9.85;100.00
69667;BME280;66534;52.370;4.832;2023-03-14T02:56:28;98696.38;;;9.87;100.00
69667;BME280;66534;52.370;4.832;2023-03-14T02:56:58;98701.47;;;9.89;100.00
69667;BME280;66534;52.370;4.832;2023-03-14T02:57:28;98699.00;;;9.87;100.00
69667;BME280;66534;52.370;4.832;2023-03-14T02:57:59;98698.25;;;9.85;100.00